createdAt,value
2022-08-18T00:03:59.383Z,33.77
2022-08-18T00:09:08.160Z,33.89
2022-08-18T00:14:22.297Z,34.11
2022-08-18T00:19:46.827Z,34.60
2022-08-18T00:24:50.522Z,34.56
2022-08-18T00:29:54.523Z,34.88
2022-08-18T00:34:57.237Z,34.58
2022-08-18T00:39:59.308Z,34.64
2022-08-18T00:45:05.011Z,34.70
2022-08-18T00:50:08.055Z,34.89
2022-08-18T00:55:18.379Z,34.78
2022-08-18T01:00:22.309Z,34.71
2022-08-18T01:05:38.227Z,35.17
2022-08-18T01:10:41.439Z,35.21
2022-08-18T01:15:43.402Z,35.61
2022-08-18T01:21:27.329Z,35.73
2022-08-18T01:26:31.372Z,36.07
2022-08-18T01:31:53.321Z,35.85
2022-08-18T01:36:57.512Z,36.41
2022-08-18T01:41:59.421Z,36.76
2022-08-18T01:47:01.387Z,36.57
2022-08-18T01:52:06.793Z,36.28
2022-08-18T01:57:14.753Z,36.33
2022-08-18T02:02:24.522Z,36.13
2022-08-18T02:07:30.802Z,36.17
2022-08-18T02:12:39.469Z,36.41
2022-08-18T02:17:43.917Z,36.10
2022-08-18T02:22:47.426Z,36.39
2022-08-18T02:27:49.431Z,36.13
2022-08-18T02:32:51.385Z,36.23
2022-08-18T02:37:54.658Z,36.66
2022-08-18T02:42:57.054Z,36.45
2022-08-18T02:47:59.040Z,36.28
2022-08-18T02:53:02.555Z,36.43
2022-08-18T02:58:04.456Z,36.59
2022-08-18T03:03:06.680Z,36.89
2022-08-18T03:08:10.620Z,36.82
2022-08-18T03:13:13.808Z,36.87
2022-08-18T03:18:16.590Z,36.63
2022-08-18T03:23:18.791Z,36.85
2022-08-18T03:28:31.624Z,36.99
2022-08-18T03:33:34.325Z,37.18
2022-08-18T03:38:36.386Z,37.28
2022-08-18T03:43:50.600Z,37.42
2022-08-18T03:48:54.341Z,37.82
2022-08-18T03:54:00.777Z,37.86
2022-08-18T03:59:18.053Z,38.36
2022-08-18T04:04:24.650Z,38.46
2022-08-18T04:09:29.500Z,38.85
2022-08-18T04:14:32.599Z,38.80
2022-08-18T04:19:35.036Z,38.84
2022-08-18T04:24:37.232Z,38.56
2022-08-18T04:29:42.172Z,38.35
2022-08-18T04:34:44.582Z,38.88
2022-08-18T04:39:46.684Z,39.15
2022-08-18T04:44:48.644Z,38.98
2022-08-18T04:49:50.912Z,39.24
2022-08-18T04:54:52.818Z,38.74
2022-08-18T04:59:55.187Z,38.47
2022-08-18T05:04:57.088Z,38.61
2022-08-18T05:10:00.153Z,38.50
2022-08-18T05:15:02.424Z,38.44
2022-08-18T05:20:04.848Z,38.47
2022-08-18T05:25:10.678Z,38.43
2022-08-18T05:30:14.651Z,38.89
2022-08-18T05:35:33.469Z,38.54
2022-08-18T05:40:36.423Z,38.65
2022-08-18T05:45:40.966Z,38.75
2022-08-18T05:50:43.358Z,38.24
2022-08-18T05:56:30.682Z,37.69
2022-08-18T06:01:42.310Z,37.62
2022-08-18T06:06:47.761Z,37.21
2022-08-18T06:11:51.289Z,36.75
2022-08-18T06:17:24.053Z,36.01
2022-08-18T06:22:34.034Z,35.86
2022-08-18T06:27:43.840Z,35.44
2022-08-18T06:33:18.529Z,34.70
2022-08-18T06:38:38.944Z,34.43
2022-08-18T06:43:59.064Z,34.39
2022-08-18T06:49:06.926Z,34.12
2022-08-18T06:54:28.251Z,33.54
2022-08-18T06:59:33.302Z,33.55
2022-08-18T07:04:40.284Z,33.47
2022-08-18T07:09:42.204Z,33.75
2022-08-18T07:14:51.983Z,33.87
2022-08-18T07:20:05.434Z,33.84
2022-08-18T07:25:18.350Z,33.68
2022-08-18T07:30:20.294Z,33.80
2022-08-18T07:35:35.631Z,33.72
2022-08-18T07:40:51.490Z,33.24
2022-08-18T07:45:57.424Z,33.19
2022-08-18T07:51:43.527Z,33.07
2022-08-18T07:57:00.592Z,33.46
2022-08-18T08:02:14.807Z,33.40
2022-08-18T08:07:42.008Z,33.24
2022-08-18T08:13:01.887Z,32.87
2022-08-18T08:18:33.837Z,33.16
2022-08-18T08:23:47.153Z,32.60
2022-08-18T08:29:18.677Z,32.87
2022-08-18T08:34:40.803Z,32.45
2022-08-18T08:39:42.713Z,31.89
2022-08-18T08:45:02.581Z,31.43
2022-08-18T08:50:09.310Z,31.15
2022-08-18T08:55:25.632Z,31.00
2022-08-18T09:00:28.622Z,31.21
2022-08-18T09:05:40.207Z,30.75
2022-08-18T09:11:16.449Z,30.19
2022-08-18T09:16:34.259Z,30.14
2022-08-18T09:21:44.578Z,30.17
2022-08-18T09:26:51.890Z,30.31
2022-08-18T09:32:18.562Z,30.04
2022-08-18T09:37:26.464Z,29.56
2022-08-18T09:43:01.188Z,29.47
2022-08-18T09:48:03.935Z,29.36
2022-08-18T09:53:33.441Z,29.02
2022-08-18T10:04:14.512Z,28.85
2022-08-18T10:09:44.078Z,28.81
2022-08-18T10:15:14.799Z,28.87
2022-08-18T10:21:08.283Z,28.80
2022-08-18T10:26:34.800Z,28.71
2022-08-18T10:31:55.385Z,28.62
2022-08-18T10:37:16.982Z,28.34
2022-08-18T10:42:33.899Z,28.67
2022-08-18T10:47:36.732Z,28.74
2022-08-18T10:53:23.901Z,28.87
2022-08-18T10:58:37.227Z,28.68
2022-08-18T11:03:52.312Z,28.52
2022-08-18T11:09:01.642Z,28.66
2022-08-18T11:14:39.706Z,28.96
2022-08-18T11:19:45.631Z,29.23
2022-08-18T11:24:48.240Z,29.41
2022-08-18T11:29:53.077Z,29.73
2022-08-18T11:34:58.037Z,30.21
2022-08-18T11:40:03.371Z,30.57
2022-08-18T11:45:23.442Z,30.75
2022-08-18T11:50:32.051Z,31.09
2022-08-18T11:55:34.737Z,31.59
2022-08-18T12:00:44.311Z,31.26
2022-08-18T12:05:56.332Z,31.93
2022-08-18T12:11:26.584Z,31.99
2022-08-18T12:16:38.467Z,32.16
2022-08-18T12:21:42.020Z,32.80
2022-08-18T12:26:47.671Z,32.55
2022-08-18T12:31:52.191Z,32.93
2022-08-18T12:36:58.220Z,33.02
2022-08-18T12:42:00.659Z,33.25
2022-08-18T12:47:10.559Z,33.28
2022-08-18T12:57:52.138Z,33.41
2022-08-18T13:02:55.871Z,33.98
2022-08-18T13:08:04.403Z,33.80
2022-08-18T13:13:07.864Z,33.99
2022-08-18T13:18:14.179Z,34.01
2022-08-18T13:23:20.072Z,33.73
2022-08-18T13:28:27.060Z,33.65
2022-08-18T13:33:35.241Z,33.48
2022-08-18T13:38:55.046Z,33.11
2022-08-18T13:43:57.000Z,32.68
2022-08-18T13:49:02.930Z,31.96
2022-08-18T13:54:18.695Z,31.58
2022-08-18T13:59:31.739Z,31.46
2022-08-18T14:04:34.073Z,31.39
2022-08-18T14:09:38.333Z,31.46
2022-08-18T14:14:40.865Z,31.58
2022-08-18T14:20:01.823Z,31.55
2022-08-18T14:25:23.209Z,31.43
2022-08-18T14:30:25.919Z,31.28
2022-08-18T14:35:34.566Z,31.33
2022-08-18T14:40:50.692Z,31.30
2022-08-18T14:45:53.878Z,31.14
2022-08-18T14:51:02.978Z,31.49
2022-08-18T14:56:06.022Z,31.50
2022-08-18T15:01:11.397Z,31.33
2022-08-18T15:06:17.171Z,31.60
2022-08-18T15:11:25.427Z,31.74
2022-08-18T15:16:32.161Z,32.17
2022-08-18T15:21:53.153Z,32.55
2022-08-18T15:27:03.169Z,32.95
2022-08-18T15:32:10.519Z,33.19
2022-08-18T15:37:12.573Z,32.98
2022-08-18T15:42:14.684Z,33.54
2022-08-18T15:47:20.954Z,33.42
2022-08-18T15:52:25.884Z,34.26
2022-08-18T15:57:38.540Z,33.99
2022-08-18T16:02:44.785Z,34.25
2022-08-18T16:07:51.858Z,34.16
2022-08-18T16:12:53.957Z,34.03
2022-08-18T16:17:56.090Z,34.41
2022-08-18T16:22:58.864Z,34.09
2022-08-18T16:28:01.494Z,34.40
2022-08-18T16:33:06.918Z,34.82
2022-08-18T16:38:09.732Z,34.75
2022-08-18T16:43:13.031Z,34.50
2022-08-18T16:48:16.872Z,34.94
2022-08-18T16:53:18.978Z,35.08
2022-08-18T16:58:39.855Z,34.77
2022-08-18T17:04:00.646Z,34.55
2022-08-18T17:09:09.853Z,34.46
2022-08-18T17:14:12.796Z,35.00
2022-08-18T17:19:14.735Z,35.10
2022-08-18T17:24:19.860Z,35.19
2022-08-18T17:30:05.535Z,34.99
2022-08-18T17:35:17.830Z,35.85
2022-08-18T17:40:35.410Z,36.22
2022-08-18T17:45:37.512Z,35.96
2022-08-18T17:51:05.898Z,36.55
2022-08-18T17:56:35.441Z,36.39
2022-08-18T18:01:37.971Z,36.92
2022-08-18T18:06:42.111Z,36.96
2022-08-18T18:11:48.180Z,36.66
2022-08-18T18:17:28.319Z,36.98
2022-08-18T18:22:30.605Z,37.10
2022-08-18T18:27:40.058Z,36.99
2022-08-18T18:32:49.017Z,37.38
2022-08-18T18:38:24.397Z,37.50
2022-08-18T18:43:39.528Z,37.85
2022-08-18T18:48:52.744Z,38.16
2022-08-18T18:54:07.675Z,38.87
2022-08-18T18:59:18.215Z,38.87
2022-08-18T19:04:29.183Z,39.69
2022-08-18T19:09:48.499Z,39.73
2022-08-18T19:15:00.847Z,39.66
2022-08-18T19:20:08.537Z,40.52
2022-08-18T19:25:19.980Z,41.10
2022-08-18T19:30:22.382Z,41.52
2022-08-18T19:35:35.224Z,42.37
2022-08-18T19:40:46.958Z,42.76
2022-08-18T19:45:55.578Z,42.67
2022-08-18T19:51:06.800Z,43.13
2022-08-18T19:56:21.421Z,43.28
2022-08-18T20:01:54.768Z,43.83
2022-08-18T20:07:14.734Z,43.51
2022-08-18T20:12:37.577Z,43.87
2022-08-18T20:17:57.392Z,44.37
2022-08-18T20:23:00.812Z,44.70
2022-08-18T20:28:04.431Z,44.93
2022-08-18T20:33:20.703Z,45.33
2022-08-18T20:38:37.024Z,46.61
2022-08-18T20:43:41.017Z,46.63
2022-08-18T20:48:42.880Z,46.97
2022-08-18T20:53:59.317Z,47.76
2022-08-18T20:59:08.639Z,47.43
2022-08-18T21:04:11.123Z,47.73
2022-08-18T21:09:18.550Z,48.24
2022-08-18T21:14:29.835Z,48.35
2022-08-18T21:19:41.031Z,48.31
2022-08-18T21:24:50.024Z,48.61
2022-08-18T21:29:53.754Z,48.99
2022-08-18T21:34:56.012Z,50.26
2022-08-18T21:40:01.713Z,50.96
2022-08-18T21:45:04.137Z,50.91
2022-08-18T21:50:19.520Z,51.53
2022-08-18T21:55:40.327Z,52.32
2022-08-18T22:01:00.806Z,51.26
2022-08-18T22:06:03.549Z,51.74
2022-08-18T22:11:44.164Z,51.74
2022-08-18T22:17:28.582Z,52.09
2022-08-18T22:22:49.357Z,52.49
2022-08-18T22:27:53.682Z,51.89
2022-08-18T22:32:55.645Z,51.63
2022-08-18T22:37:57.968Z,52.20
2022-08-18T22:42:59.922Z,52.38
2022-08-18T22:48:03.038Z,52.85
2022-08-18T22:53:05.657Z,52.93
2022-08-18T22:58:07.765Z,52.54
2022-08-18T23:03:12.222Z,52.30
2022-08-18T23:08:14.490Z,51.87
2022-08-18T23:13:17.497Z,52.35
2022-08-18T23:18:21.549Z,52.63
2022-08-18T23:23:24.360Z,52.90
2022-08-18T23:28:27.345Z,53.49
2022-08-18T23:33:29.267Z,53.57
2022-08-18T23:38:31.489Z,53.99
2022-08-18T23:43:37.362Z,53.66
2022-08-18T23:48:39.375Z,53.63
2022-08-18T23:53:41.318Z,54.56
2022-08-18T23:58:43.491Z,53.81
